sensor_id;sensor_type;location;lat;lon;timestamp;P1;durP1;ratioP1;P2;durP2;ratioP2
9186;SDS011;7273;48.902;9.410;2022-07-23T00:00:05;4.53;;;1.92;;
9186;SDS011;7273;48.902;9.410;2022-07-23T00:02:31;1.83;;;1.20;;
9186;SDS011;7273;48.902;9.410;2022-07-23T00:04:57;2.45;;;1.65;;
9186;SDS011;7273;48.902;9.410;2022-07-23T00:07:22;3.60;;;1.63;;
9186;SDS011;7273;48.902;9.410;2022-07-23T00:09:48;4.38;;;2.00;;
9186;SDS011;7273;48.902;9.410;2022-07-23T00:12:13;3.50;;;1.73;;
9186;SDS011;7273;48.902;9.410;2022-07-23T00:14:38;2.97;;;1.63;;
9186;SDS011;7273;48.902;9.410;2022-07-23T00:17:04;4.97;;;1.60;;
9186;SDS011;7273;48.902;9.410;2022-07-23T00:19:29;2.75;;;1.70;;
9186;SDS011;7273;48.902;9.410;2022-07-23T00:21:55;4.30;;;1.70;;
9186;SDS011;7273;48.902;9.410;2022-07-23T00:24:20;2.47;;;1.40;;
9186;SDS011;7273;48.902;9.410;2022-07-23T00:26:46;3.30;;;1.85;;
9186;SDS011;7273;48.902;9.410;2022-07-23T00:29:11;3.65;;;1.65;;
9186;SDS011;7273;48.902;9.410;2022-07-23T00:31:36;3.15;;;1.75;;
9186;SDS011;7273;48.902;9.410;2022-07-23T00:34:02;2.80;;;1.52;;
9186;SDS011;7273;48.902;9.410;2022-07-23T00:36:28;2.90;;;1.65;;
9186;SDS011;7273;48.902;9.410;2022-07-23T00:38:53;3.45;;;1.45;;
9186;SDS011;7273;48.902;9.410;2022-07-23T00:41:19;3.35;;;1.70;;
9186;SDS011;7273;48.902;9.410;2022-07-23T00:43:44;4.90;;;1.77;;
9186;SDS011;7273;48.902;9.410;2022-07-23T00:46:10;3.08;;;1.45;;
9186;SDS011;7273;48.902;9.410;2022-07-23T00:48:35;1.70;;;1.08;;
9186;SDS011;7273;48.902;9.410;2022-07-23T00:51:01;2.90;;;0.88;;
9186;SDS011;7273;48.902;9.410;2022-07-23T00:53:27;4.65;;;1.48;;
9186;SDS011;7273;48.902;9.410;2022-07-23T00:55:53;5.78;;;1.30;;
9186;SDS011;7273;48.902;9.410;2022-07-23T00:58:19;3.13;;;1.52;;
9186;SDS011;7273;48.902;9.410;2022-07-23T01:00:45;2.90;;;1.75;;
9186;SDS011;7273;48.902;9.410;2022-07-23T01:03:10;2.88;;;0.98;;
9186;SDS011;7273;48.902;9.410;2022-07-23T01:05:36;2.85;;;1.40;;
9186;SDS011;7273;48.902;9.410;2022-07-23T01:08:02;2.15;;;1.13;;
9186;SDS011;7273;48.902;9.410;2022-07-23T01:10:28;2.67;;;1.30;;
9186;SDS011;7273;48.902;9.410;2022-07-23T01:12:56;1.50;;;0.88;;
9186;SDS011;7273;48.902;9.410;2022-07-23T01:15:30;7.97;;;1.90;;
9186;SDS011;7273;48.902;9.410;2022-07-23T01:17:57;2.63;;;1.20;;
9186;SDS011;7273;48.902;9.410;2022-07-23T01:20:22;3.35;;;1.83;;
9186;SDS011;7273;48.902;9.410;2022-07-23T01:22:48;5.78;;;1.95;;
9186;SDS011;7273;48.902;9.410;2022-07-23T01:25:13;4.47;;;2.05;;
9186;SDS011;7273;48.902;9.410;2022-07-23T01:27:39;2.78;;;1.80;;
9186;SDS011;7273;48.902;9.410;2022-07-23T01:30:05;4.93;;;2.10;;
9186;SDS011;7273;48.902;9.410;2022-07-23T01:32:31;4.97;;;2.00;;
9186;SDS011;7273;48.902;9.410;2022-07-23T01:34:56;4.78;;;2.33;;
9186;SDS011;7273;48.902;9.410;2022-07-23T01:37:22;3.90;;;2.28;;
9186;SDS011;7273;48.902;9.410;2022-07-23T01:39:47;4.28;;;2.05;;
9186;SDS011;7273;48.902;9.410;2022-07-23T01:42:13;2.55;;;1.23;;
9186;SDS011;7273;48.902;9.410;2022-07-23T01:44:38;4.30;;;2.22;;
9186;SDS011;7273;48.902;9.410;2022-07-23T01:47:03;4.28;;;2.40;;
9186;SDS011;7273;48.902;9.410;2022-07-23T01:49:29;2.65;;;1.27;;
9186;SDS011;7273;48.902;9.410;2022-07-23T01:51:54;3.88;;;1.85;;
9186;SDS011;7273;48.902;9.410;2022-07-23T01:54:26;5.30;;;2.50;;
9186;SDS011;7273;48.902;9.410;2022-07-23T01:56:56;5.72;;;2.78;;
9186;SDS011;7273;48.902;9.410;2022-07-23T01:59:22;8.45;;;3.15;;
9186;SDS011;7273;48.902;9.410;2022-07-23T02:01:48;1.40;;;1.10;;
9186;SDS011;7273;48.902;9.410;2022-07-23T02:04:16;1.08;;;0.80;;
9186;SDS011;7273;48.902;9.410;2022-07-23T02:06:42;2.60;;;1.17;;
9186;SDS011;7273;48.902;9.410;2022-07-23T02:09:07;2.50;;;1.35;;
9186;SDS011;7273;48.902;9.410;2022-07-23T02:11:33;1.40;;;0.73;;
9186;SDS011;7273;48.902;9.410;2022-07-23T02:13:58;4.65;;;1.20;;
9186;SDS011;7273;48.902;9.410;2022-07-23T02:16:24;6.40;;;1.58;;
9186;SDS011;7273;48.902;9.410;2022-07-23T02:18:49;4.68;;;1.55;;
9186;SDS011;7273;48.902;9.410;2022-07-23T02:21:14;3.47;;;1.42;;
9186;SDS011;7273;48.902;9.410;2022-07-23T02:23:40;1.98;;;1.27;;
9186;SDS011;7273;48.902;9.410;2022-07-23T02:26:05;2.58;;;1.42;;
9186;SDS011;7273;48.902;9.410;2022-07-23T02:28:31;2.33;;;1.15;;
9186;SDS011;7273;48.902;9.410;2022-07-23T02:30:56;1.77;;;0.80;;
9186;SDS011;7273;48.902;9.410;2022-07-23T02:33:22;2.75;;;1.40;;
9186;SDS011;7273;48.902;9.410;2022-07-23T02:35:47;1.98;;;1.23;;
9186;SDS011;7273;48.902;9.410;2022-07-23T02:38:12;2.13;;;1.13;;
9186;SDS011;7273;48.902;9.410;2022-07-23T02:40:38;1.35;;;0.98;;
9186;SDS011;7273;48.902;9.410;2022-07-23T02:43:03;1.33;;;0.93;;
9186;SDS011;7273;48.902;9.410;2022-07-23T02:45:29;1.73;;;1.20;;
9186;SDS011;7273;48.902;9.410;2022-07-23T02:47:54;2.80;;;1.15;;
9186;SDS011;7273;48.902;9.410;2022-07-23T02:50:20;3.45;;;1.15;;
9186;SDS011;7273;48.902;9.410;2022-07-23T02:52:45;4.63;;;1.35;;
9186;SDS011;7273;48.902;9.410;2022-07-23T02:55:10;2.10;;;1.23;;
9186;SDS011;7273;48.902;9.410;2022-07-23T02:57:36;2.95;;;1.55;;
9186;SDS011;7273;48.902;9.410;2022-07-23T03:00:03;4.10;;;1.50;;
9186;SDS011;7273;48.902;9.410;2022-07-23T03:02:31;2.85;;;1.10;;
9186;SDS011;7273;48.902;9.410;2022-07-23T03:04:56;2.58;;;1.15;;
9186;SDS011;7273;48.902;9.410;2022-07-23T03:07:22;1.77;;;1.08;;
9186;SDS011;7273;48.902;9.410;2022-07-23T03:09:47;1.85;;;1.13;;
9186;SDS011;7273;48.902;9.410;2022-07-23T03:12:12;2.83;;;1.48;;
9186;SDS011;7273;48.902;9.410;2022-07-23T03:14:38;2.35;;;1.30;;
9186;SDS011;7273;48.902;9.410;2022-07-23T03:17:04;2.35;;;1.65;;
9186;SDS011;7273;48.902;9.410;2022-07-23T03:19:30;4.20;;;1.17;;
9186;SDS011;7273;48.902;9.410;2022-07-23T03:21:55;2.25;;;1.55;;
9186;SDS011;7273;48.902;9.410;2022-07-23T03:24:20;2.85;;;1.30;;
9186;SDS011;7273;48.902;9.410;2022-07-23T03:26:48;3.80;;;1.10;;
9186;SDS011;7273;48.902;9.410;2022-07-23T03:29:15;2.50;;;1.30;;
9186;SDS011;7273;48.902;9.410;2022-07-23T03:31:40;3.70;;;1.45;;
9186;SDS011;7273;48.902;9.410;2022-07-23T03:34:06;6.25;;;1.50;;
9186;SDS011;7273;48.902;9.410;2022-07-23T03:36:31;1.63;;;1.23;;
9186;SDS011;7273;48.902;9.410;2022-07-23T03:38:56;2.17;;;1.02;;
9186;SDS011;7273;48.902;9.410;2022-07-23T03:41:22;2.53;;;1.40;;
9186;SDS011;7273;48.902;9.410;2022-07-23T03:43:47;2.30;;;1.25;;
9186;SDS011;7273;48.902;9.410;2022-07-23T03:46:13;3.60;;;1.20;;
9186;SDS011;7273;48.902;9.410;2022-07-23T03:48:38;3.53;;;1.80;;
9186;SDS011;7273;48.902;9.410;2022-07-23T03:51:04;2.35;;;1.08;;
9186;SDS011;7273;48.902;9.410;2022-07-23T03:53:29;1.48;;;1.17;;
9186;SDS011;7273;48.902;9.410;2022-07-23T03:55:55;2.03;;;1.20;;
9186;SDS011;7273;48.902;9.410;2022-07-23T03:58:20;2.83;;;1.15;;
9186;SDS011;7273;48.902;9.410;2022-07-23T04:00:46;2.47;;;1.05;;
9186;SDS011;7273;48.902;9.410;2022-07-23T04:03:11;2.80;;;1.35;;
9186;SDS011;7273;48.902;9.410;2022-07-23T04:05:37;3.67;;;1.75;;
9186;SDS011;7273;48.902;9.410;2022-07-23T04:08:02;2.90;;;1.35;;
9186;SDS011;7273;48.902;9.410;2022-07-23T04:10:28;2.55;;;1.52;;
9186;SDS011;7273;48.902;9.410;2022-07-23T04:12:53;4.05;;;1.67;;
9186;SDS011;7273;48.902;9.410;2022-07-23T04:15:19;6.82;;;1.58;;
9186;SDS011;7273;48.902;9.410;2022-07-23T04:17:44;6.32;;;2.25;;
9186;SDS011;7273;48.902;9.410;2022-07-23T04:20:11;4.78;;;2.20;;
9186;SDS011;7273;48.902;9.410;2022-07-23T04:22:37;3.38;;;1.88;;
9186;SDS011;7273;48.902;9.410;2022-07-23T04:25:03;5.30;;;1.85;;
9186;SDS011;7273;48.902;9.410;2022-07-23T04:27:28;3.67;;;1.67;;
9186;SDS011;7273;48.902;9.410;2022-07-23T04:29:54;5.03;;;2.60;;
9186;SDS011;7273;48.902;9.410;2022-07-23T04:32:19;4.03;;;2.22;;
9186;SDS011;7273;48.902;9.410;2022-07-23T04:34:44;3.90;;;1.90;;
9186;SDS011;7273;48.902;9.410;2022-07-23T04:37:10;7.78;;;2.72;;
9186;SDS011;7273;48.902;9.410;2022-07-23T04:39:35;4.80;;;2.38;;
9186;SDS011;7273;48.902;9.410;2022-07-23T04:42:01;5.43;;;2.60;;
9186;SDS011;7273;48.902;9.410;2022-07-23T04:44:26;4.43;;;2.50;;
9186;SDS011;7273;48.902;9.410;2022-07-23T04:46:51;5.22;;;2.65;;
9186;SDS011;7273;48.902;9.410;2022-07-23T04:49:17;5.85;;;2.92;;
9186;SDS011;7273;48.902;9.410;2022-07-23T04:51:42;5.72;;;2.83;;
9186;SDS011;7273;48.902;9.410;2022-07-23T04:54:08;5.47;;;2.65;;
9186;SDS011;7273;48.902;9.410;2022-07-23T04:56:33;7.25;;;3.08;;
9186;SDS011;7273;48.902;9.410;2022-07-23T04:58:58;6.47;;;3.38;;
9186;SDS011;7273;48.902;9.410;2022-07-23T05:01:25;8.13;;;3.67;;
9186;SDS011;7273;48.902;9.410;2022-07-23T05:03:50;7.55;;;3.85;;
9186;SDS011;7273;48.902;9.410;2022-07-23T05:06:16;11.60;;;4.78;;
9186;SDS011;7273;48.902;9.410;2022-07-23T05:08:41;13.30;;;6.25;;
9186;SDS011;7273;48.902;9.410;2022-07-23T05:11:07;13.75;;;7.20;;
9186;SDS011;7273;48.902;9.410;2022-07-23T05:13:32;20.08;;;12.23;;
9186;SDS011;7273;48.902;9.410;2022-07-23T05:15:57;19.30;;;11.88;;
9186;SDS011;7273;48.902;9.410;2022-07-23T05:18:23;26.05;;;17.13;;
9186;SDS011;7273;48.902;9.410;2022-07-23T05:20:48;42.65;;;26.27;;
9186;SDS011;7273;48.902;9.410;2022-07-23T05:23:14;61.72;;;34.17;;
9186;SDS011;7273;48.902;9.410;2022-07-23T05:25:39;71.05;;;39.72;;
9186;SDS011;7273;48.902;9.410;2022-07-23T05:28:05;70.25;;;39.92;;
9186;SDS011;7273;48.902;9.410;2022-07-23T05:30:30;57.17;;;32.90;;
9186;SDS011;7273;48.902;9.410;2022-07-23T05:32:56;78.18;;;43.83;;
9186;SDS011;7273;48.902;9.410;2022-07-23T05:35:21;92.70;;;50.88;;
9186;SDS011;7273;48.902;9.410;2022-07-23T05:37:46;101.22;;;53.92;;
9186;SDS011;7273;48.902;9.410;2022-07-23T05:40:12;31.85;;;18.50;;
9186;SDS011;7273;48.902;9.410;2022-07-23T05:42:38;45.00;;;28.40;;
9186;SDS011;7273;48.902;9.410;2022-07-23T05:45:05;15.68;;;8.02;;
9186;SDS011;7273;48.902;9.410;2022-07-23T05:47:41;9.30;;;4.63;;
9186;SDS011;7273;48.902;9.410;2022-07-23T05:50:13;4.65;;;1.55;;
9186;SDS011;7273;48.902;9.410;2022-07-23T05:52:40;13.98;;;6.63;;
9186;SDS011;7273;48.902;9.410;2022-07-23T05:55:06;4.90;;;2.47;;
9186;SDS011;7273;48.902;9.410;2022-07-23T05:57:32;14.05;;;6.50;;
9186;SDS011;7273;48.902;9.410;2022-07-23T05:59:58;7.00;;;3.10;;
9186;SDS011;7273;48.902;9.410;2022-07-23T06:02:23;6.70;;;3.25;;
9186;SDS011;7273;48.902;9.410;2022-07-23T06:04:49;7.70;;;3.08;;
9186;SDS011;7273;48.902;9.410;2022-07-23T06:07:14;4.93;;;2.35;;
9186;SDS011;7273;48.902;9.410;2022-07-23T06:09:39;11.02;;;5.60;;
9186;SDS011;7273;48.902;9.410;2022-07-23T06:12:05;3.63;;;1.50;;
9186;SDS011;7273;48.902;9.410;2022-07-23T06:14:31;5.47;;;2.75;;
9186;SDS011;7273;48.902;9.410;2022-07-23T06:16:56;17.40;;;3.55;;
9186;SDS011;7273;48.902;9.410;2022-07-23T06:19:22;5.00;;;2.33;;
9186;SDS011;7273;48.902;9.410;2022-07-23T06:21:47;6.18;;;2.88;;
9186;SDS011;7273;48.902;9.410;2022-07-23T06:24:12;4.00;;;1.80;;
9186;SDS011;7273;48.902;9.410;2022-07-23T06:26:38;3.13;;;1.73;;
9186;SDS011;7273;48.902;9.410;2022-07-23T06:29:03;3.50;;;1.75;;
9186;SDS011;7273;48.902;9.410;2022-07-23T06:31:29;4.72;;;2.03;;
9186;SDS011;7273;48.902;9.410;2022-07-23T06:33:54;6.70;;;2.45;;
9186;SDS011;7273;48.902;9.410;2022-07-23T06:36:19;5.85;;;3.20;;
9186;SDS011;7273;48.902;9.410;2022-07-23T06:38:45;9.50;;;3.92;;
9186;SDS011;7273;48.902;9.410;2022-07-23T06:41:10;10.93;;;4.18;;
9186;SDS011;7273;48.902;9.410;2022-07-23T06:43:36;8.45;;;3.78;;
9186;SDS011;7273;48.902;9.410;2022-07-23T06:46:01;2.60;;;1.48;;
9186;SDS011;7273;48.902;9.410;2022-07-23T06:48:26;3.38;;;2.00;;
9186;SDS011;7273;48.902;9.410;2022-07-23T06:50:53;3.67;;;1.92;;
9186;SDS011;7273;48.902;9.410;2022-07-23T06:53:18;4.20;;;2.20;;
9186;SDS011;7273;48.902;9.410;2022-07-23T06:55:43;4.78;;;2.25;;
9186;SDS011;7273;48.902;9.410;2022-07-23T06:58:09;5.72;;;2.10;;
9186;SDS011;7273;48.902;9.410;2022-07-23T07:00:35;3.58;;;1.50;;
9186;SDS011;7273;48.902;9.410;2022-07-23T07:03:01;4.00;;;2.33;;
9186;SDS011;7273;48.902;9.410;2022-07-23T07:05:26;5.72;;;1.95;;
9186;SDS011;7273;48.902;9.410;2022-07-23T07:07:53;3.92;;;2.10;;
9186;SDS011;7273;48.902;9.410;2022-07-23T07:10:19;5.93;;;2.47;;
9186;SDS011;7273;48.902;9.410;2022-07-23T07:12:45;3.75;;;2.00;;
9186;SDS011;7273;48.902;9.410;2022-07-23T07:15:10;5.57;;;2.25;;
9186;SDS011;7273;48.902;9.410;2022-07-23T07:17:36;5.38;;;2.50;;
9186;SDS011;7273;48.902;9.410;2022-07-23T07:20:02;6.13;;;2.53;;
9186;SDS011;7273;48.902;9.410;2022-07-23T07:22:28;4.82;;;2.30;;
9186;SDS011;7273;48.902;9.410;2022-07-23T07:24:53;4.93;;;2.42;;
9186;SDS011;7273;48.902;9.410;2022-07-23T07:27:18;4.95;;;2.80;;
9186;SDS011;7273;48.902;9.410;2022-07-23T07:29:44;5.05;;;2.30;;
9186;SDS011;7273;48.902;9.410;2022-07-23T07:32:09;6.60;;;2.67;;
9186;SDS011;7273;48.902;9.410;2022-07-23T07:34:34;6.50;;;2.67;;
9186;SDS011;7273;48.902;9.410;2022-07-23T07:37:00;5.85;;;2.83;;
9186;SDS011;7273;48.902;9.410;2022-07-23T07:39:25;5.65;;;1.83;;
9186;SDS011;7273;48.902;9.410;2022-07-23T07:41:51;3.88;;;1.92;;
9186;SDS011;7273;48.902;9.410;2022-07-23T07:44:16;4.40;;;1.98;;
9186;SDS011;7273;48.902;9.410;2022-07-23T07:46:42;3.60;;;2.00;;
9186;SDS011;7273;48.902;9.410;2022-07-23T07:49:07;5.28;;;2.33;;
9186;SDS011;7273;48.902;9.410;2022-07-23T07:51:33;4.03;;;2.35;;
9186;SDS011;7273;48.902;9.410;2022-07-23T07:53:58;3.97;;;1.90;;
9186;SDS011;7273;48.902;9.410;2022-07-23T07:56:24;4.13;;;2.15;;
9186;SDS011;7273;48.902;9.410;2022-07-23T07:58:49;3.70;;;1.90;;
9186;SDS011;7273;48.902;9.410;2022-07-23T08:01:14;5.28;;;2.40;;
9186;SDS011;7273;48.902;9.410;2022-07-23T08:03:40;5.47;;;2.55;;
9186;SDS011;7273;48.902;9.410;2022-07-23T08:06:05;6.97;;;2.17;;
9186;SDS011;7273;48.902;9.410;2022-07-23T08:08:31;7.07;;;2.13;;
9186;SDS011;7273;48.902;9.410;2022-07-23T08:10:56;3.88;;;1.83;;
9186;SDS011;7273;48.902;9.410;2022-07-23T08:13:22;7.60;;;2.50;;
9186;SDS011;7273;48.902;9.410;2022-07-23T08:15:47;3.65;;;1.98;;
9186;SDS011;7273;48.902;9.410;2022-07-23T08:18:14;4.47;;;2.00;;
9186;SDS011;7273;48.902;9.410;2022-07-23T08:20:39;7.07;;;2.08;;
9186;SDS011;7273;48.902;9.410;2022-07-23T08:23:06;4.30;;;2.47;;
9186;SDS011;7273;48.902;9.410;2022-07-23T08:25:33;6.50;;;3.15;;
9186;SDS011;7273;48.902;9.410;2022-07-23T08:28:03;6.70;;;2.40;;
9186;SDS011;7273;48.902;9.410;2022-07-23T08:30:31;6.32;;;2.28;;
9186;SDS011;7273;48.902;9.410;2022-07-23T08:32:59;4.07;;;1.92;;
9186;SDS011;7273;48.902;9.410;2022-07-23T08:35:41;4.78;;;2.38;;
9186;SDS011;7273;48.902;9.410;2022-07-23T08:38:14;3.95;;;2.05;;
9186;SDS011;7273;48.902;9.410;2022-07-23T08:43:09;5.45;;;2.00;;
9186;SDS011;7273;48.902;9.410;2022-07-23T08:45:40;3.95;;;2.13;;
9186;SDS011;7273;48.902;9.410;2022-07-23T08:48:07;8.45;;;2.65;;
9186;SDS011;7273;48.902;9.410;2022-07-23T08:50:35;8.68;;;2.90;;
9186;SDS011;7273;48.902;9.410;2022-07-23T08:53:02;3.92;;;1.88;;
9186;SDS011;7273;48.902;9.410;2022-07-23T08:55:30;2.00;;;1.30;;
9186;SDS011;7273;48.902;9.410;2022-07-23T08:57:56;7.32;;;2.22;;
9186;SDS011;7273;48.902;9.410;2022-07-23T09:00:22;5.07;;;2.58;;
9186;SDS011;7273;48.902;9.410;2022-07-23T09:02:48;3.92;;;1.90;;
9186;SDS011;7273;48.902;9.410;2022-07-23T09:05:15;4.15;;;2.17;;
9186;SDS011;7273;48.902;9.410;2022-07-23T09:18:54;11.20;;;1.77;;
9186;SDS011;7273;48.902;9.410;2022-07-23T09:21:31;6.70;;;2.10;;
9186;SDS011;7273;48.902;9.410;2022-07-23T09:24:00;10.18;;;1.85;;
9186;SDS011;7273;48.902;9.410;2022-07-23T09:31:54;4.00;;;1.92;;
9186;SDS011;7273;48.902;9.410;2022-07-23T09:37:12;4.32;;;2.00;;
9186;SDS011;7273;48.902;9.410;2022-07-23T09:39:40;6.03;;;1.83;;
9186;SDS011;7273;48.902;9.410;2022-07-23T09:42:13;4.40;;;1.85;;
9186;SDS011;7273;48.902;9.410;2022-07-23T09:44:42;2.95;;;1.90;;
9186;SDS011;7273;48.902;9.410;2022-07-23T09:47:09;5.03;;;1.70;;
9186;SDS011;7273;48.902;9.410;2022-07-23T09:49:34;5.25;;;1.67;;
9186;SDS011;7273;48.902;9.410;2022-07-23T09:52:00;3.90;;;1.50;;
9186;SDS011;7273;48.902;9.410;2022-07-23T09:56:55;3.90;;;1.77;;
9186;SDS011;7273;48.902;9.410;2022-07-23T09:59:23;2.95;;;1.75;;
9186;SDS011;7273;48.902;9.410;2022-07-23T10:01:53;3.10;;;1.63;;
9186;SDS011;7273;48.902;9.410;2022-07-23T10:04:21;2.47;;;1.38;;
9186;SDS011;7273;48.902;9.410;2022-07-23T10:06:50;2.90;;;1.63;;
9186;SDS011;7273;48.902;9.410;2022-07-23T10:09:18;4.40;;;2.15;;
9186;SDS011;7273;48.902;9.410;2022-07-23T10:11:49;2.92;;;1.60;;
9186;SDS011;7273;48.902;9.410;2022-07-23T10:14:16;3.72;;;1.52;;
9186;SDS011;7273;48.902;9.410;2022-07-23T10:16:43;3.65;;;1.77;;
9186;SDS011;7273;48.902;9.410;2022-07-23T10:19:09;5.22;;;1.90;;
9186;SDS011;7273;48.902;9.410;2022-07-23T10:21:39;3.17;;;1.75;;
9186;SDS011;7273;48.902;9.410;2022-07-23T10:29:58;4.38;;;2.58;;
9186;SDS011;7273;48.902;9.410;2022-07-23T10:38:10;3.58;;;1.80;;
9186;SDS011;7273;48.902;9.410;2022-07-23T10:40:59;5.40;;;2.22;;
9186;SDS011;7273;48.902;9.410;2022-07-23T10:43:28;3.22;;;1.88;;
9186;SDS011;7273;48.902;9.410;2022-07-23T10:45:55;3.60;;;1.60;;
9186;SDS011;7273;48.902;9.410;2022-07-23T10:48:21;3.90;;;1.48;;
9186;SDS011;7273;48.902;9.410;2022-07-23T10:56:17;3.00;;;1.75;;
9186;SDS011;7273;48.902;9.410;2022-07-23T10:59:04;3.75;;;1.83;;
9186;SDS011;7273;48.902;9.410;2022-07-23T11:01:36;4.07;;;2.03;;
9186;SDS011;7273;48.902;9.410;2022-07-23T11:04:03;3.38;;;1.95;;
9186;SDS011;7273;48.902;9.410;2022-07-23T11:09:26;3.55;;;1.95;;
9186;SDS011;7273;48.902;9.410;2022-07-23T11:12:52;3.78;;;2.03;;
9186;SDS011;7273;48.902;9.410;2022-07-23T11:17:30;4.78;;;2.65;;
9186;SDS011;7273;48.902;9.410;2022-07-23T11:25:13;4.32;;;2.25;;
9186;SDS011;7273;48.902;9.410;2022-07-23T11:27:56;5.45;;;3.08;;
9186;SDS011;7273;48.902;9.410;2022-07-23T11:35:34;4.85;;;2.22;;
9186;SDS011;7273;48.902;9.410;2022-07-23T11:38:07;4.68;;;2.40;;
9186;SDS011;7273;48.902;9.410;2022-07-23T11:40:38;4.95;;;2.63;;
9186;SDS011;7273;48.902;9.410;2022-07-23T11:43:05;4.68;;;2.92;;
9186;SDS011;7273;48.902;9.410;2022-07-23T11:45:34;3.20;;;2.05;;
9186;SDS011;7273;48.902;9.410;2022-07-23T11:48:02;8.00;;;3.03;;
9186;SDS011;7273;48.902;9.410;2022-07-23T11:50:30;8.60;;;3.53;;
9186;SDS011;7273;48.902;9.410;2022-07-23T11:52:56;3.30;;;2.25;;
9186;SDS011;7273;48.902;9.410;2022-07-23T11:55:22;4.53;;;2.30;;
9186;SDS011;7273;48.902;9.410;2022-07-23T11:57:50;5.18;;;1.85;;
9186;SDS011;7273;48.902;9.410;2022-07-23T12:00:17;3.80;;;2.22;;
9186;SDS011;7273;48.902;9.410;2022-07-23T12:02:46;3.70;;;2.03;;
9186;SDS011;7273;48.902;9.410;2022-07-23T12:05:16;4.88;;;2.58;;
9186;SDS011;7273;48.902;9.410;2022-07-23T12:07:47;3.10;;;2.13;;
9186;SDS011;7273;48.902;9.410;2022-07-23T12:10:18;3.97;;;2.22;;
9186;SDS011;7273;48.902;9.410;2022-07-23T12:12:46;4.13;;;2.10;;
9186;SDS011;7273;48.902;9.410;2022-07-23T12:15:14;4.78;;;2.20;;
9186;SDS011;7273;48.902;9.410;2022-07-23T12:17:43;3.47;;;2.00;;
9186;SDS011;7273;48.902;9.410;2022-07-23T12:20:12;5.22;;;2.38;;
9186;SDS011;7273;48.902;9.410;2022-07-23T12:22:41;2.92;;;1.90;;
9186;SDS011;7273;48.902;9.410;2022-07-23T12:25:09;6.55;;;2.58;;
9186;SDS011;7273;48.902;9.410;2022-07-23T12:27:37;3.85;;;2.10;;
9186;SDS011;7273;48.902;9.410;2022-07-23T12:30:25;4.15;;;2.08;;
9186;SDS011;7273;48.902;9.410;2022-07-23T12:32:51;3.67;;;2.28;;
9186;SDS011;7273;48.902;9.410;2022-07-23T12:35:19;5.80;;;2.28;;
9186;SDS011;7273;48.902;9.410;2022-07-23T12:37:47;3.45;;;2.17;;
9186;SDS011;7273;48.902;9.410;2022-07-23T12:40:24;4.22;;;2.35;;
9186;SDS011;7273;48.902;9.410;2022-07-23T12:42:54;4.40;;;2.65;;
9186;SDS011;7273;48.902;9.410;2022-07-23T12:48:35;4.75;;;2.33;;
9186;SDS011;7273;48.902;9.410;2022-07-23T12:51:02;4.55;;;2.60;;
9186;SDS011;7273;48.902;9.410;2022-07-23T12:53:32;3.75;;;2.40;;
9186;SDS011;7273;48.902;9.410;2022-07-23T12:56:10;3.15;;;2.33;;
9186;SDS011;7273;48.902;9.410;2022-07-23T12:58:51;5.35;;;2.85;;
9186;SDS011;7273;48.902;9.410;2022-07-23T13:03:53;3.80;;;2.25;;
9186;SDS011;7273;48.902;9.410;2022-07-23T13:06:30;5.18;;;2.40;;
9186;SDS011;7273;48.902;9.410;2022-07-23T13:09:02;3.88;;;1.80;;
9186;SDS011;7273;48.902;9.410;2022-07-23T13:11:29;7.05;;;2.65;;
9186;SDS011;7273;48.902;9.410;2022-07-23T13:13:55;4.32;;;2.15;;
9186;SDS011;7273;48.902;9.410;2022-07-23T13:16:21;4.30;;;2.53;;
9186;SDS011;7273;48.902;9.410;2022-07-23T13:18:46;10.68;;;2.53;;
9186;SDS011;7273;48.902;9.410;2022-07-23T13:21:12;5.00;;;2.38;;
9186;SDS011;7273;48.902;9.410;2022-07-23T13:23:37;4.53;;;2.42;;
9186;SDS011;7273;48.902;9.410;2022-07-23T13:26:03;7.75;;;2.63;;
9186;SDS011;7273;48.902;9.410;2022-07-23T13:28:29;8.40;;;2.92;;
9186;SDS011;7273;48.902;9.410;2022-07-23T13:30:55;7.28;;;3.63;;
9186;SDS011;7273;48.902;9.410;2022-07-23T13:33:22;5.88;;;3.10;;
9186;SDS011;7273;48.902;9.410;2022-07-23T13:35:49;6.50;;;3.55;;
9186;SDS011;7273;48.902;9.410;2022-07-23T13:38:15;9.40;;;4.65;;
9186;SDS011;7273;48.902;9.410;2022-07-23T13:40:42;7.75;;;3.35;;
9186;SDS011;7273;48.902;9.410;2022-07-23T13:43:09;5.93;;;2.80;;
9186;SDS011;7273;48.902;9.410;2022-07-23T13:45:37;7.22;;;3.30;;
9186;SDS011;7273;48.902;9.410;2022-07-23T13:48:03;6.22;;;3.85;;
9186;SDS011;7273;48.902;9.410;2022-07-23T13:50:30;6.60;;;3.92;;
9186;SDS011;7273;48.902;9.410;2022-07-23T13:52:56;8.18;;;3.60;;
9186;SDS011;7273;48.902;9.410;2022-07-23T13:55:22;6.72;;;3.15;;
9186;SDS011;7273;48.902;9.410;2022-07-23T13:57:47;7.85;;;3.72;;
9186;SDS011;7273;48.902;9.410;2022-07-23T14:00:13;9.35;;;3.95;;
9186;SDS011;7273;48.902;9.410;2022-07-23T14:02:39;8.10;;;3.38;;
9186;SDS011;7273;48.902;9.410;2022-07-23T14:05:06;4.88;;;2.60;;
9186;SDS011;7273;48.902;9.410;2022-07-23T14:07:34;9.38;;;3.60;;
9186;SDS011;7273;48.902;9.410;2022-07-23T14:10:01;11.32;;;4.20;;
9186;SDS011;7273;48.902;9.410;2022-07-23T14:12:27;5.88;;;2.97;;
9186;SDS011;7273;48.902;9.410;2022-07-23T14:14:52;8.90;;;3.10;;
9186;SDS011;7273;48.902;9.410;2022-07-23T14:17:18;7.00;;;2.72;;
9186;SDS011;7273;48.902;9.410;2022-07-23T14:19:44;7.47;;;3.80;;
9186;SDS011;7273;48.902;9.410;2022-07-23T14:22:09;6.40;;;3.20;;
9186;SDS011;7273;48.902;9.410;2022-07-23T14:24:35;6.28;;;3.10;;
9186;SDS011;7273;48.902;9.410;2022-07-23T14:27:01;7.45;;;3.47;;
9186;SDS011;7273;48.902;9.410;2022-07-23T14:29:27;7.13;;;2.60;;
9186;SDS011;7273;48.902;9.410;2022-07-23T14:31:53;5.22;;;2.97;;
9186;SDS011;7273;48.902;9.410;2022-07-23T14:34:19;10.18;;;3.42;;
9186;SDS011;7273;48.902;9.410;2022-07-23T14:36:44;7.05;;;3.38;;
9186;SDS011;7273;48.902;9.410;2022-07-23T14:39:09;6.32;;;2.80;;
9186;SDS011;7273;48.902;9.410;2022-07-23T14:41:36;5.30;;;3.08;;
9186;SDS011;7273;48.902;9.410;2022-07-23T14:44:02;4.32;;;2.60;;
9186;SDS011;7273;48.902;9.410;2022-07-23T14:46:28;4.30;;;2.63;;
9186;SDS011;7273;48.902;9.410;2022-07-23T14:48:53;4.30;;;2.65;;
9186;SDS011;7273;48.902;9.410;2022-07-23T14:51:19;4.72;;;2.65;;
9186;SDS011;7273;48.902;9.410;2022-07-23T14:53:44;5.22;;;2.03;;
9186;SDS011;7273;48.902;9.410;2022-07-23T14:56:10;5.03;;;2.60;;
9186;SDS011;7273;48.902;9.410;2022-07-23T14:58:35;6.90;;;3.00;;
9186;SDS011;7273;48.902;9.410;2022-07-23T15:01:00;6.25;;;3.25;;
9186;SDS011;7273;48.902;9.410;2022-07-23T15:03:26;9.07;;;3.10;;
9186;SDS011;7273;48.902;9.410;2022-07-23T15:05:51;6.57;;;3.67;;
9186;SDS011;7273;48.902;9.410;2022-07-23T15:08:17;4.43;;;2.75;;
9186;SDS011;7273;48.902;9.410;2022-07-23T15:10:42;4.38;;;2.20;;
9186;SDS011;7273;48.902;9.410;2022-07-23T15:13:08;6.05;;;2.75;;
9186;SDS011;7273;48.902;9.410;2022-07-23T15:15:33;9.88;;;2.90;;
9186;SDS011;7273;48.902;9.410;2022-07-23T15:17:59;5.22;;;2.80;;
9186;SDS011;7273;48.902;9.410;2022-07-23T15:20:25;7.32;;;3.50;;
9186;SDS011;7273;48.902;9.410;2022-07-23T15:22:50;5.72;;;3.28;;
9186;SDS011;7273;48.902;9.410;2022-07-23T15:25:16;4.85;;;2.67;;
9186;SDS011;7273;48.902;9.410;2022-07-23T15:27:41;7.50;;;3.08;;
9186;SDS011;7273;48.902;9.410;2022-07-23T15:30:07;6.07;;;2.92;;
9186;SDS011;7273;48.902;9.410;2022-07-23T15:32:33;4.70;;;2.47;;
9186;SDS011;7273;48.902;9.410;2022-07-23T15:34:58;5.43;;;3.05;;
9186;SDS011;7273;48.902;9.410;2022-07-23T15:37:24;5.22;;;3.10;;
9186;SDS011;7273;48.902;9.410;2022-07-23T15:39:50;6.18;;;3.33;;
9186;SDS011;7273;48.902;9.410;2022-07-23T15:42:15;5.82;;;3.30;;
9186;SDS011;7273;48.902;9.410;2022-07-23T15:44:41;5.32;;;3.38;;
9186;SDS011;7273;48.902;9.410;2022-07-23T15:47:10;9.38;;;3.80;;
9186;SDS011;7273;48.902;9.410;2022-07-23T15:49:38;7.55;;;3.33;;
9186;SDS011;7273;48.902;9.410;2022-07-23T15:52:03;6.00;;;3.30;;
9186;SDS011;7273;48.902;9.410;2022-07-23T15:54:29;9.02;;;3.63;;
9186;SDS011;7273;48.902;9.410;2022-07-23T15:56:54;8.48;;;2.85;;
9186;SDS011;7273;48.902;9.410;2022-07-23T15:59:20;6.38;;;2.92;;
9186;SDS011;7273;48.902;9.410;2022-07-23T16:01:45;6.40;;;2.83;;
9186;SDS011;7273;48.902;9.410;2022-07-23T16:04:11;5.50;;;2.90;;
9186;SDS011;7273;48.902;9.410;2022-07-23T16:06:36;5.15;;;2.85;;
9186;SDS011;7273;48.902;9.410;2022-07-23T16:09:02;5.70;;;2.65;;
9186;SDS011;7273;48.902;9.410;2022-07-23T16:11:28;7.88;;;3.35;;
9186;SDS011;7273;48.902;9.410;2022-07-23T16:13:53;4.28;;;2.42;;